Time;durP1;ratioP1;P1;durP2;ratioP2;P2;SDS_P1;SDS_P2;PMS_P1;PMS_P2;Temp;Humidity;BMP_temperature;BMP_pressure;BME280_temperature;BME280_humidity;BME280_pressure;Samples;Min_cycle;Max_cycle;Signal;HPM_P1;HPM_P2
2022/10/09 00:00:49;;;;;;;;;;;;;;;;;;;;;
2022/10/09 00:03:44;;;;;;;;;7.25;6.25;;;;;17.31;50.09;101297.69;146637;570;45021;-67
2022/10/09 00:06:38;;;;;;;;;7.00;6.00;;;;;17.23;50.20;101291.31;146635;612;45016;-68
2022/10/09 00:09:30;;;;;;;;;7.00;5.75;;;;;17.16;50.65;101287.59;146633;600;46010;-68
2022/10/09 00:12:22;;;;;;;;;8.00;7.50;;;;;16.86;50.88;101237.69;146631;671;45017;-69
2022/10/09 00:15:29;;;;;;;;;;;;;;;;;;;;;
2022/10/09 00:18:32;;;;;;;;;7.75;6.00;;;;;16.99;50.12;101279.16;146634;610;45012;-68
2022/10/09 00:21:51;;;;;;;;;5.00;5.00;;;;;17.01;50.45;101272.25;146633;622;45020;-70
2022/10/09 00:24:46;;;;;;;;;7.00;7.00;;;;;17.06;50.40;101275.91;146633;570;45913;-69
2022/10/09 00:27:45;;;;;;;;;7.50;7.00;;;;;17.11;50.56;101277.81;146636;563;44021;-70
2022/10/09 00:30:44;;;;;;;;;8.25;5.25;;;;;17.11;49.68;101278.69;146631;696;45858;-70
2022/10/09 00:34:02;;;;;;;;;7.00;5.50;;;;;17.08;50.45;101279.47;146635;583;45020;-69
2022/10/09 00:36:58;;;;;;;;;5.25;5.25;;;;;17.01;50.58;101274.88;146636;628;45012;-68
2022/10/09 00:40:00;;;;;;;;;5.25;5.25;;;;;16.88;49.92;101270.03;146636;629;46010;-68
2022/10/09 00:43:09;;;;;;;;;6.50;4.25;;;;;16.72;49.98;101260.75;146634;563;45012;-67
2022/10/09 00:46:29;;;;;;;;;6.00;5.00;;;;;16.63;49.99;101266.56;146634;569;45050;-68
2022/10/09 00:49:51;;;;;;;;;;;;;;;;;;;;;
2022/10/09 00:52:44;;;;;;;;;5.00;4.00;;;;;16.59;50.12;101269.88;146623;619;46010;-66
2022/10/09 00:55:40;;;;;;;;;7.50;6.75;;;;;16.55;50.29;101268.00;146616;617;46017;-69
2022/10/09 00:58:43;;;;;;;;;5.50;3.75;;;;;16.50;50.13;101264.31;146614;623;46020;-68
2022/10/09 01:01:35;;;;;;;;;4.00;4.00;;;;;16.49;50.60;101259.94;146617;676;46016;-71
2022/10/09 01:04:45;;;;;;;;;5.00;5.00;;;;;16.47;50.43;101272.06;146622;694;46010;-68
2022/10/09 01:08:22;;;;;;;;;;;;;;;;;;;;;
2022/10/09 01:11:56;;;;;;;;;6.00;4.00;;;;;14.44;50.16;100920.34;146620;599;46010;-70
2022/10/09 01:15:16;;;;;;;;;6.50;6.25;;;;;16.32;50.35;101253.19;146619;588;46016;-70
2022/10/09 01:18:51;;;;;;;;;;;;;;;;;;;;;
2022/10/09 01:22:08;;;;;;;;;4.75;4.25;;;;;16.31;50.39;101248.81;146618;614;46016;-66
2022/10/09 01:25:38;;;;;;;;;5.50;5.00;;;;;16.35;50.02;101248.06;146618;602;47012;-68
2022/10/09 01:28:34;;;;;;;;;6.00;6.00;;;;;16.38;51.04;101253.41;146617;588;46016;-67
2022/10/09 01:31:33;;;;;;;;;5.50;5.25;;;;;16.36;51.71;101247.25;146620;609;46011;-67
2022/10/09 01:34:31;;;;;;;;;6.75;6.00;;;;;16.36;51.52;101247.25;146618;697;46034;-70
2022/10/09 01:37:31;;;;;;;;;6.00;5.50;;;;;16.39;51.27;101236.91;146621;685;46020;-70
2022/10/09 01:40:32;;;;;;;;;6.75;5.25;;;;;16.47;51.21;101237.16;146620;635;46013;-71
2022/10/09 01:43:45;;;;;;;;;;;;;;;;;;;;;
2022/10/09 01:46:45;;;;;;;;;6.00;6.00;;;;;16.63;50.75;101244.69;146615;609;46017;-71
2022/10/09 01:50:17;;;;;;;;;;;;;;;;;;;;;
2022/10/09 01:53:26;;;;;;;;;4.25;4.00;;;;;16.79;49.29;101251.38;146617;639;46012;-71
2022/10/09 01:56:26;;;;;;;;;5.25;3.50;;;;;16.90;49.41;101250.03;146617;588;46021;-69
2022/10/09 01:59:22;;;;;;;;;6.25;5.00;;;;;17.01;49.08;101251.31;146618;564;46016;-72
2022/10/09 02:02:23;;;;;;;;;5.00;5.00;;;;;17.08;49.13;101242.81;146615;573;46021;-71
2022/10/09 02:05:32;;;;;;;;;7.25;6.00;;;;;17.13;48.68;101250.78;146617;564;46016;-71
2022/10/09 02:08:34;;;;;;;;;7.25;5.25;;;;;17.15;49.11;101248.25;146620;590;46020;-72
2022/10/09 02:11:34;;;;;;;;;8.00;6.00;;;;;17.13;48.74;101244.66;146616;604;46014;-71
2022/10/09 02:14:27;;;;;;;;;5.00;5.00;;;;;17.09;49.43;101255.06;146620;607;48010;-70
2022/10/09 02:17:32;;;;;;;;;4.75;4.75;;;;;17.03;49.47;101264.44;146618;590;46017;-71
2022/10/09 02:20:53;;;;;;;;;7.00;7.00;;;;;15.08;49.39;100934.94;146622;629;46010;-70
2022/10/09 02:24:07;;;;;;;;;6.00;6.00;;;;;16.83;50.07;101266.41;146618;570;46913;-69
2022/10/09 02:27:02;;;;;;;;;7.50;6.00;;;;;16.71;50.52;101265.94;146621;575;46020;-73
2022/10/09 02:29:57;;;;;;;;;7.25;7.25;;;;;16.58;50.30;101273.34;146618;638;46016;-71
2022/10/09 02:32:52;;;;;;;;;7.25;7.25;;;;;16.44;50.81;101273.69;146618;618;46010;-71
2022/10/09 02:35:46;;;;;;;;;6.00;5.00;;;;;16.36;51.13;101274.31;146619;592;46012;-71
2022/10/09 02:38:49;;;;;;;;;7.75;6.75;;;;;16.34;51.47;101277.69;146622;698;46011;-72
2022/10/09 02:41:48;;;;;;;;;6.00;5.25;;;;;16.25;51.80;101272.13;146616;600;46016;-71
2022/10/09 02:44:49;;;;;;;;;7.75;6.25;;;;;16.12;51.63;101282.13;146622;578;46010;-69
2022/10/09 02:47:45;;;;;;;;;5.75;5.00;;;;;15.11;52.38;101131.84;146616;569;46016;-70
2022/10/09 02:51:00;;;;;;;;;;;;;;;;;;;;;
2022/10/09 02:53:58;;;;;;;;;3.00;2.75;;;;;15.77;52.96;101285.16;146616;642;46017;-71
2022/10/09 02:56:50;;;;;;;;;8.00;6.75;;;;;15.68;53.33;101286.56;146623;570;45028;-70
2022/10/09 02:59:49;;;;;;;;;6.00;5.00;;;;;15.62;53.27;101283.66;146616;585;46016;-69
2022/10/09 03:03:04;;;;;;;;;6.25;6.25;;;;;15.61;52.42;101287.13;146619;570;46020;-68
2022/10/09 03:06:15;;;;;;;;;8.75;8.75;;;;;15.60;52.33;101285.31;146616;624;47014;-70
2022/10/09 03:09:10;;;;;;;;;7.00;6.00;;;;;15.57;53.44;101287.81;146624;593;46021;-69
2022/10/09 03:12:10;;;;;;;;;5.00;4.00;;;;;15.52;53.03;101286.75;146618;701;46016;-69
2022/10/09 03:15:04;;;;;;;;;10.00;10.00;;;;;14.70;53.27;101146.75;146621;568;46020;-69
2022/10/09 03:17:59;;;;;;;;;6.25;6.00;;;;;15.46;52.94;101282.16;146616;577;46013;-70
2022/10/09 03:20:54;;;;;;;;;6.50;6.50;;;;;15.46;53.27;101283.91;146620;607;46012;-70
2022/10/09 03:23:57;;;;;;;;;5.00;5.00;;;;;15.42;53.37;101282.88;146616;578;46017;-69
2022/10/09 03:27:10;;;;;;;;;7.00;7.00;;;;;15.40;53.19;101278.41;146621;670;46010;-68
2022/10/09 03:30:14;;;;;;;;;6.00;5.00;;;;;15.38;52.43;101273.13;146618;644;46016;-72
2022/10/09 03:33:17;;;;;;;;;5.75;5.75;;;;;15.41;53.23;101275.84;146619;633;46021;-72
2022/10/09 03:36:16;;;;;;;;;8.75;7.25;;;;;15.50;53.02;101280.56;146617;603;46014;-72
2022/10/09 03:39:08;;;;;;;;;6.25;6.25;;;;;15.60;52.89;101282.69;146623;564;46010;-72
2022/10/09 03:42:03;;;;;;;;;5.25;5.25;;;;;15.69;52.63;101284.81;146620;617;46026;-71
2022/10/09 03:45:03;;;;;;;;;6.25;6.25;;;;;15.75;52.23;101285.06;146622;588;46010;-70
2022/10/09 03:47:56;;;;;;;;;5.75;5.00;;;;;15.76;52.24;101293.81;146617;577;46017;-73
2022/10/09 03:50:50;;;;;;;;;7.75;6.00;;;;;15.73;52.53;101293.69;146620;737;46020;-70
2022/10/09 03:53:47;;;;;;;;;8.00;6.25;;;;;15.67;52.52;101299.59;146618;579;46017;-70
2022/10/09 03:56:53;;;;;;;;;9.00;7.00;;;;;13.68;51.94;100960.75;146623;581;46020;-70
2022/10/09 03:59:56;;;;;;;;;7.75;7.50;;;;;15.58;52.96;101296.56;146617;613;46016;-72
2022/10/09 04:02:51;;;;;;;;;8.75;7.00;;;;;15.52;53.53;101312.00;146615;624;46021;-74
2022/10/09 04:05:45;;;;;;;;;6.00;5.50;;;;;15.40;54.09;101312.38;146617;586;46915;-71
2022/10/09 04:08:40;;;;;;;;;7.25;6.75;;;;;15.29;54.37;101318.88;146623;579;46021;-73
2022/10/09 04:11:43;;;;;;;;;9.25;8.00;;;;;15.20;54.12;101315.06;146614;581;46016;-66
2022/10/09 04:14:50;;;;;;;;;6.75;6.75;;;;;15.16;54.37;101315.75;146623;569;46010;-70
2022/10/09 04:18:02;;;;;;;;;;;;;;;;;;;;;
2022/10/09 04:21:08;;;;;;;;;7.00;5.50;;;;;15.18;53.57;101324.56;146622;602;46010;-66
2022/10/09 04:24:07;;;;;;;;;7.00;6.00;;;;;15.19;54.02;101320.22;146617;575;46016;-67
2022/10/09 04:27:02;;;;;;;;;5.25;5.25;;;;;15.22;53.89;101323.84;146623;593;46010;-68
2022/10/09 04:29:56;;;;;;;;;6.25;6.00;;;;;15.23;54.18;101322.13;146619;581;46016;-67
2022/10/09 04:32:48;;;;;;;;;7.75;6.00;;;;;15.18;54.37;101323.66;146615;605;46021;-67
2022/10/09 04:36:04;;;;;;;;;5.75;5.75;;;;;15.11;53.51;101324.22;146619;569;46028;-66
2022/10/09 04:39:00;;;;;;;;;9.25;6.25;;;;;15.11;54.11;101327.75;146635;606;46021;-68
2022/10/09 04:41:52;;;;;;;;;11.25;8.00;;;;;15.14;54.63;101333.09;146621;583;46014;-69
2022/10/09 04:44:57;;;;;;;;;7.00;6.25;;;;;13.26;53.15;101004.03;146618;581;46020;-69
2022/10/09 04:47:55;;;;;;;;;10.25;8.25;;;;;15.15;54.94;101341.81;146617;588;46012;-69
2022/10/09 04:50:47;;;;;;;;;14.50;9.75;;;;;15.10;54.48;101336.38;146623;698;46010;-69
2022/10/09 04:53:50;;;;;;;;;7.25;7.00;;;;;15.10;54.89;101348.56;146618;608;46915;-69
2022/10/09 04:56:46;;;;;;;;;7.75;7.75;;;;;15.09;54.48;101344.19;146619;625;46020;-70
2022/10/09 04:59:53;;;;;;;;;7.00;6.00;;;;;15.10;54.20;101333.78;146618;604;46013;-68
2022/10/09 05:02:52;;;;;;;;;7.75;6.50;;;;;15.16;54.79;101333.16;146615;583;46028;-70
2022/10/09 05:05:46;;;;;;;;;7.75;7.00;;;;;15.52;55.31;101332.91;146616;594;47012;-70
2022/10/09 05:08:54;;;;;;;;;6.75;5.75;;;;;14.42;53.33;101034.19;146621;595;46010;-69
2022/10/09 05:11:49;;;;;;;;;6.25;5.00;;;;;17.00;52.88;101338.56;146619;639;46012;-70
2022/10/09 05:15:10;;;;;;;;;6.50;6.25;;;;;15.81;50.32;101021.22;146621;590;46020;-67
2022/10/09 05:18:13;;;;;;;;;8.00;6.00;;;;;18.37;49.03;101345.63;146616;615;46016;-66
2022/10/09 05:21:16;;;;;;;;;8.25;7.00;;;;;19.07;49.38;101341.50;146622;686;46010;-66
2022/10/09 05:24:20;;;;;;;;;6.00;6.00;;;;;19.83;47.00;101342.50;146620;594;46012;-66
2022/10/09 05:27:15;;;;;;;;;6.75;6.75;;;;;20.52;45.62;101337.03;146622;569;45020;-66
2022/10/09 05:30:39;;;;;;;;;6.75;6.75;;;;;21.22;44.72;101349.78;146618;617;46013;-70
2022/10/09 05:33:36;;;;;;;;;10.75;7.75;;;;;22.09;43.85;101350.31;146620;699;46012;-69
2022/10/09 05:36:38;;;;;;;;;10.75;8.50;;;;;21.04;42.31;101062.94;146619;577;46015;-77
2022/10/09 05:39:38;;;;;;;;;6.50;6.00;;;;;23.06;41.52;101360.38;146620;602;46020;-77
2022/10/09 05:42:36;;;;;;;;;8.00;8.00;;;;;23.30;41.39;101359.69;146615;584;46012;-70
2022/10/09 05:45:40;;;;;;;;;9.00;6.75;;;;;23.56;40.76;101361.69;146620;602;46021;-73
2022/10/09 05:48:41;;;;;;;;;6.25;6.25;;;;;23.81;40.02;101366.31;146633;599;45016;-69
2022/10/09 05:51:44;;;;;;;;;7.75;6.75;;;;;23.79;40.04;101378.66;146636;623;45020;-67
2022/10/09 05:54:42;;;;;;;;;8.75;8.00;;;;;23.58;40.43;101373.16;146631;644;46917;-67
2022/10/09 05:57:40;;;;;;;;;9.25;8.75;;;;;23.28;41.29;101382.63;146636;648;45020;-67
2022/10/09 06:00:34;;;;;;;;;7.25;6.50;;;;;22.97;41.16;101387.59;146637;640;45012;-67
2022/10/09 06:03:30;;;;;;;;;7.50;7.50;;;;;22.72;41.95;101390.81;146636;563;45020;-69
2022/10/09 06:06:24;;;;;;;;;6.50;6.50;;;;;22.46;42.01;101394.00;146635;594;45012;-68
2022/10/09 06:09:17;;;;;;;;;8.50;7.75;;;;;22.33;43.17;101402.63;146635;571;45020;-67
2022/10/09 06:12:10;;;;;;;;;8.25;7.25;;;;;22.29;43.73;101398.16;146635;686;45016;-68
2022/10/09 06:15:02;;;;;;;;;6.25;6.25;;;;;22.32;42.82;101400.84;146632;581;46010;-68
2022/10/09 06:17:59;;;;;;;;;6.00;5.00;;;;;22.31;41.98;101412.28;146634;612;45917;-68
2022/10/09 06:21:15;;;;;;;;;7.25;7.25;;;;;22.25;42.50;101410.44;146636;571;45020;-68
2022/10/09 06:24:10;;;;;;;;;6.25;6.25;;;;;22.25;43.31;101409.56;146630;597;46012;-68
2022/10/09 06:27:16;;;;;;;;;9.00;8.50;;;;;22.32;43.43;101417.59;146637;591;45020;-65
2022/10/09 06:30:17;;;;;;;;;11.75;11.25;;;;;22.41;42.75;101405.38;146630;577;46014;-66
2022/10/09 06:33:13;;;;;;;;;8.00;8.00;;;;;22.56;43.57;101422.31;146633;685;46010;-67
2022/10/09 06:36:22;;;;;;;;;8.00;7.00;;;;;22.72;42.96;101422.53;146632;650;45913;-67
2022/10/09 06:39:16;;;;;;;;;10.50;8.00;;;;;22.88;41.82;101416.53;146637;613;45020;-66
2022/10/09 06:42:17;;;;;;;;;7.75;7.00;;;;;23.01;41.75;101421.13;146627;578;46012;-65
2022/10/09 06:45:20;;;;;;;;;7.25;7.25;;;;;23.13;41.32;101416.84;146637;582;45010;-64
2022/10/09 06:48:13;;;;;;;;;7.75;7.75;;;;;23.23;41.57;101424.00;146619;581;47014;-66
2022/10/09 06:51:14;;;;;;;;;8.50;8.00;;;;;23.32;40.70;101424.09;146623;576;46020;-66
2022/10/09 06:54:19;;;;;;;;;8.75;8.25;;;;;23.43;40.18;101425.12;146617;628;46915;-66
2022/10/09 06:57:23;;;;;;;;;10.50;10.25;;;;;23.49;40.96;101425.16;146621;647;47010;-68
2022/10/09 07:00:17;;;;;;;;;8.75;8.75;;;;;23.55;40.50;101419.06;146618;617;46013;-67
2022/10/09 07:03:16;;;;;;;;;10.00;10.00;;;;;23.62;40.67;101425.28;146617;565;46012;-67
2022/10/09 07:06:31;;;;;;;;;11.75;9.50;;;;;23.69;40.95;101425.38;146620;591;46012;-68
2022/10/09 07:09:28;;;;;;;;;11.25;9.25;;;;;23.86;39.88;101422.88;146623;608;46010;-67
2022/10/09 07:12:32;;;;;;;;;10.00;10.00;;;;;23.93;39.99;101429.09;146619;654;46016;-67
2022/10/09 07:15:27;;;;;;;;;9.50;9.25;;;;;23.91;39.84;101420.25;146622;651;46010;-68
2022/10/09 07:18:22;;;;;;;;;9.00;9.00;;;;;23.89;40.52;101435.22;146618;584;46016;-67
2022/10/09 07:21:20;;;;;;;;;4.50;4.50;;;;;23.92;40.12;101422.00;146623;571;46010;-67
2022/10/09 07:24:23;;;;;;;;;7.00;7.00;;;;;24.00;40.60;101427.38;146622;597;45016;-68
2022/10/09 07:27:28;;;;;;;;;8.50;8.50;;;;;24.11;40.91;101430.97;146622;594;46010;-68
2022/10/09 07:30:23;;;;;;;;;9.25;8.50;;;;;24.16;41.15;101435.44;146618;571;46016;-68
2022/10/09 07:33:25;;;;;;;;;8.50;6.75;;;;;24.27;41.05;101432.88;146614;642;46020;-70
2022/10/09 07:36:27;;;;;;;;;;;;;;;;;;;;;
2022/10/09 07:39:44;;;;;;;;;11.00;10.25;;;;;24.49;41.81;101441.88;146620;569;46020;-67
2022/10/09 07:42:39;;;;;;;;;7.75;7.75;;;;;24.54;41.31;101436.56;146617;637;46918;-68
2022/10/09 07:45:40;;;;;;;;;11.25;11.00;;;;;24.52;41.83;101441.00;146622;576;46010;-66
2022/10/09 07:48:42;;;;;;;;;9.00;7.25;;;;;24.48;42.35;101441.84;146614;713;46016;-70
2022/10/09 07:51:36;;;;;;;;;8.75;8.75;;;;;24.61;41.72;101433.97;146621;575;46021;-70
2022/10/09 07:54:40;;;;;;;;;12.50;11.50;;;;;24.82;41.28;101430.50;146613;576;46016;-69
2022/10/09 07:57:39;;;;;;;;;10.75;10.25;;;;;24.98;41.65;101439.41;146619;623;46011;-69
2022/10/09 08:00:36;;;;;;;;;10.50;9.25;;;;;25.11;41.36;101437.69;146616;657;46012;-72
2022/10/09 08:03:42;;;;;;;;;;;;;;;;;;;;;
2022/10/09 08:06:45;;;;;;;;;12.00;10.25;;;;;23.77;41.25;101138.56;146615;569;46016;-70
2022/10/09 08:09:40;;;;;;;;;8.25;8.00;;;;;25.63;40.88;101443.09;146619;575;46020;-71
2022/10/09 08:12:47;;;;;;;;;11.00;10.00;;;;;25.70;41.29;101441.34;146618;610;46016;-72
2022/10/09 08:15:43;;;;;;;;;10.00;10.00;;;;;25.77;41.06;101449.31;146605;623;47913;-70
2022/10/09 08:18:40;;;;;;;;;9.00;8.75;;;;;25.79;40.40;101446.66;146614;725;46918;-68
2022/10/09 08:21:45;;;;;;;;;11.75;8.00;;;;;25.76;39.21;101438.69;146622;592;46020;-70
2022/10/09 08:24:55;;;;;;;;;10.25;9.50;;;;;25.77;40.49;101443.13;146617;572;46012;-71
2022/10/09 08:28:02;;;;;;;;;7.50;7.50;;;;;25.89;40.38;101443.16;146622;564;45021;-69
2022/10/09 08:30:59;;;;;;;;;9.00;8.50;;;;;26.00;39.09;101443.13;146617;658;46016;-70
2022/10/09 08:33:54;;;;;;;;;10.75;9.75;;;;;25.96;39.79;101436.94;146614;615;46020;-70
2022/10/09 08:36:48;;;;;;;;;8.50;7.50;;;;;25.99;39.80;101436.06;146616;615;46016;-70
2022/10/09 08:39:48;;;;;;;;;12.50;8.75;;;;;26.11;39.73;101444.03;146620;607;47010;-70
2022/10/09 08:43:10;;;;;;;;;18.50;12.25;;;;;26.24;40.07;101445.75;146617;683;46014;-70
2022/10/09 08:46:09;;;;;;;;;9.50;7.75;;;;;26.43;39.37;101440.41;146619;597;46010;-71
2022/10/09 08:49:21;;;;;;;;;7.00;7.00;;;;;26.59;39.78;101444.81;146616;667;46017;-71
2022/10/09 08:52:50;;;;;;;;;10.50;9.75;;;;;26.79;39.55;101434.13;146620;703;46020;-71
2022/10/09 08:56:13;;;;;;;;;8.25;7.50;;;;;26.92;39.02;101434.94;146616;599;46017;-70
2022/10/09 08:59:06;;;;;;;;;6.00;6.00;;;;;26.93;37.68;101434.91;146618;576;46020;-72
2022/10/09 09:02:32;;;;;;;;;7.67;7.00;;;;;25.31;38.70;101170.53;146617;629;46016;-72
2022/10/09 09:10:12;;;;;;;;;8.00;8.00;;;;;25.36;39.11;101157.28;146618;594;46016;-71
2022/10/09 09:13:45;;;;;;;;;12.75;12.00;;;;;25.42;39.33;101166.97;146623;617;45021;-71
2022/10/09 09:17:18;;;;;;;;;10.50;10.25;;;;;26.85;39.29;101422.53;146616;577;46014;-72
2022/10/09 09:20:37;;;;;;;;;9.00;7.50;;;;;26.79;39.60;101418.16;146620;569;46020;-70
2022/10/09 09:23:47;;;;;;;;;9.00;7.75;;;;;26.81;39.28;101416.34;146617;578;46014;-71
2022/10/09 09:26:57;;;;;;;;;8.33;7.67;;;;;26.83;38.97;101409.25;146620;569;46021;-70
2022/10/09 09:30:02;;;;;;;;;9.00;9.00;;;;;26.89;39.34;101413.66;146617;709;46014;-70
2022/10/09 09:33:41;;;;;;;;;7.25;6.75;;;;;26.88;39.54;101411.88;146622;571;46010;-71
2022/10/09 09:37:03;;;;;;;;;10.33;8.00;;;;;26.82;39.48;101403.91;146618;662;46016;-72
2022/10/09 09:39:58;;;;;;;;;7.25;7.25;;;;;26.82;39.85;101404.84;146613;654;46010;-75
2022/10/09 09:42:55;;;;;;;;;8.00;8.00;;;;;26.83;40.04;101413.69;146618;569;46012;-70
2022/10/09 09:45:55;;;;;;;;;11.00;10.00;;;;;26.87;40.30;101404.78;146621;645;46020;-72
2022/10/09 09:49:26;;;;;;;;;8.00;8.00;;;;;27.02;39.86;101406.50;146616;584;46017;-70
2022/10/09 09:52:21;;;;;;;;;6.67;5.67;;;;;27.09;39.43;101403.78;146623;593;46010;-71
2022/10/09 09:55:37;;;;;;;;;10.00;9.00;;;;;27.17;39.01;101402.00;146617;599;46015;-71
2022/10/09 09:58:47;;;;;;;;;6.33;6.00;;;;;27.15;37.79;101400.22;146618;600;46022;-71
2022/10/09 10:01:54;;;;;;;;;7.00;7.00;;;;;27.10;36.42;101405.56;146620;612;46012;-72
2022/10/09 10:05:04;;;;;;;;;7.00;6.00;;;;;26.96;38.12;101402.09;146622;689;46010;-72
2022/10/09 10:08:08;;;;;;;;;7.67;7.00;;;;;27.02;37.18;101404.72;146617;590;46016;-72
2022/10/09 10:11:29;;;;;;;;;5.00;5.00;;;;;27.14;37.62;101410.00;146617;564;45021;-71
2022/10/09 10:14:30;;;;;;;;;9.00;7.67;;;;;26.59;37.14;101285.22;146620;624;46016;-72
2022/10/09 10:17:39;;;;;;;;;5.00;5.00;;;;;26.74;33.21;101278.94;146621;613;46020;-72
2022/10/09 10:20:45;;;;;;;;;6.00;6.00;;;;;27.45;33.08;101392.94;146618;584;46014;-70
2022/10/09 10:24:03;;;;;;;;;6.00;6.00;;;;;27.38;35.03;101382.31;146620;613;46020;-71
2022/10/09 10:27:42;;;;;;;;;6.33;6.00;;;;;26.16;34.59;101183.53;146616;569;46024;-72
2022/10/09 10:30:45;;;;;;;;;6.50;5.75;;;;;27.32;34.58;101370.81;146620;603;46022;-71
2022/10/09 10:33:47;;;;;;;;;6.00;6.00;;;;;27.35;32.10;101373.44;146617;586;46916;-71
2022/10/09 10:36:45;;;;;;;;;5.33;5.00;;;;;27.29;32.39;101363.75;146622;626;46020;-71
2022/10/09 10:40:05;;;;;;;;;4.67;4.00;;;;;27.16;33.23;101360.25;146620;617;46013;-71
2022/10/09 10:43:53;;;;;;;;;;;;;;;;;;;;;
2022/10/09 10:47:19;;;;;;;;;;;;;;;;;;;;;
2022/10/09 10:50:22;;;;;;;;;2.33;2.33;;;;;26.90;29.67;101357.75;146621;589;46020;-71
2022/10/09 10:54:21;;;;;;;;;5.67;5.67;;;;;25.57;34.34;101096.09;146619;584;46014;-72
2022/10/09 10:57:48;;;;;;;;;5.33;4.67;;;;;27.19;33.16;101351.38;146622;687;46020;-73
2022/10/09 11:01:07;;;;;;;;;4.00;3.67;;;;;27.25;34.25;101348.66;146621;652;46016;-74
2022/10/09 11:04:53;;;;;;;;;5.00;3.67;;;;;26.58;34.31;101209.00;146623;584;46020;-74
2022/10/09 11:08:51;;;;;;;;;4.33;4.33;;;;;26.65;33.48;101186.78;146617;571;46014;-72
2022/10/09 11:12:10;;;;;;;;;7.00;5.67;;;;;27.50;33.55;101332.50;146613;583;47914;-75
2022/10/09 11:15:41;;;;;;;;;6.00;6.00;;;;;26.04;34.65;101072.84;146616;594;46014;-68
2022/10/09 11:19:11;;;;;;;;;5.50;5.00;;;;;27.57;33.16;101313.78;146608;575;47010;-69
2022/10/09 11:22:39;;;;;;;;;7.50;7.50;;;;;27.58;34.91;101315.56;146615;576;46012;-69
2022/10/09 11:26:24;;;;;;;;;6.00;6.00;;;;;26.17;33.90;101074.56;146617;702;46021;-69
2022/10/09 11:29:48;;;;;;;;;22.75;22.75;;;;;27.60;32.92;101312.84;146611;582;47014;-69
2022/10/09 11:33:26;;;;;;;;;5.50;5.00;;;;;27.59;33.26;101306.66;146613;571;46010;-71
2022/10/09 11:36:42;;;;;;;;;5.00;4.25;;;;;27.43;33.17;101293.50;146615;609;46012;-69
2022/10/09 11:39:44;;;;;;;;;4.00;4.00;;;;;27.40;33.90;101286.41;146616;598;46021;-71
2022/10/09 11:42:38;;;;;;;;;3.00;3.00;;;;;27.47;34.41;101292.56;146617;564;46915;-71
2022/10/09 11:46:19;;;;;;;;;;;;;;;;;;;;;
2022/10/09 11:49:32;;;;;;;;;6.00;6.00;;;;;27.54;34.49;101287.19;146617;566;46016;-72
2022/10/09 11:53:06;;;;;;;;;6.00;5.00;;;;;26.27;34.60;101059.41;146616;646;46020;-68
2022/10/09 11:56:25;;;;;;;;;4.33;3.67;;;;;27.50;33.64;101277.44;146619;577;46017;-67
2022/10/09 11:59:28;;;;;;;;;6.00;6.00;;;;;27.47;33.64;101271.25;146624;630;46020;-69
2022/10/09 12:02:33;;;;;;;;;7.00;7.00;;;;;27.39;33.29;101266.03;146617;636;46916;-71
2022/10/09 12:05:52;;;;;;;;;6.00;5.33;;;;;26.56;32.31;101125.66;146623;691;46020;-69
2022/10/09 12:09:11;;;;;;;;;5.00;5.00;;;;;25.91;33.37;101004.75;146618;645;46024;-68
2022/10/09 12:12:33;;;;;;;;;4.33;4.33;;;;;27.37;32.66;101259.81;146621;583;46023;-69
2022/10/09 12:15:56;;;;;;;;;5.00;4.00;;;;;27.37;33.48;101255.38;146619;569;46016;-68
2022/10/09 12:18:55;;;;;;;;;6.00;6.00;;;;;27.47;33.14;101255.28;146622;577;46021;-69
2022/10/09 12:21:56;;;;;;;;;7.00;6.00;;;;;27.54;34.23;101249.88;146620;697;46012;-69
2022/10/09 12:25:23;;;;;;;;;6.50;6.50;;;;;26.05;34.19;100989.59;146617;602;46011;-68
2022/10/09 12:29:10;;;;;;;;;6.00;5.67;;;;;26.13;33.93;100995.72;146619;600;46014;-68
2022/10/09 12:32:18;;;;;;;;;4.33;4.33;;;;;27.59;33.67;101250.72;146625;564;46010;-69
2022/10/09 12:35:43;;;;;;;;;7.00;7.00;;;;;27.58;33.06;101245.41;146616;587;46911;-70
2022/10/09 12:38:44;;;;;;;;;5.25;5.25;;;;;27.54;33.65;101239.25;146620;679;46020;-69
2022/10/09 12:41:45;;;;;;;;;5.50;5.50;;;;;27.50;31.97;101239.28;146616;599;46916;-67
2022/10/09 12:44:47;;;;;;;;;5.00;5.00;;;;;27.32;31.12;101235.00;146621;644;46020;-69
2022/10/09 12:47:39;;;;;;;;;7.67;6.67;;;;;27.25;32.97;101241.28;146616;577;47014;-67
2022/10/09 12:50:36;;;;;;;;;7.00;7.00;;;;;27.25;31.34;101244.84;146620;648;46020;-71
2022/10/09 12:53:31;;;;;;;;;5.33;4.67;;;;;27.25;33.12;101244.84;146619;572;46016;-70
2022/10/09 12:56:37;;;;;;;;;5.33;4.00;;;;;27.23;32.33;101238.66;146616;564;46021;-69
2022/10/09 12:59:31;;;;;;;;;4.50;4.50;;;;;27.27;33.19;101240.37;146616;617;46016;-69
2022/10/09 13:02:43;;;;;;;;;5.75;5.75;;;;;27.36;34.17;101250.94;146620;571;46020;-68
2022/10/09 13:06:16;;;;;;;;;12.75;12.25;;;;;27.46;34.83;101245.53;146620;654;46016;-69
2022/10/09 13:09:32;;;;;;;;;7.50;6.00;;;;;27.49;33.56;101241.06;146622;567;46021;-70
2022/10/09 13:12:35;;;;;;;;;3.75;3.75;;;;;27.46;31.41;101233.09;146609;686;47923;-68
2022/10/09 13:15:41;;;;;;;;;5.75;5.75;;;;;27.38;33.75;101238.50;146620;586;47010;-69
2022/10/09 13:18:36;;;;;;;;;6.00;6.00;;;;;27.26;34.07;101235.06;146615;563;47012;-68
2022/10/09 13:21:35;;;;;;;;;7.67;7.67;;;;;27.27;34.88;101237.72;146622;700;46010;-70
2022/10/09 13:24:33;;;;;;;;;7.00;7.00;;;;;27.32;34.56;101235.91;146619;598;47013;-67
2022/10/09 13:27:37;;;;;;;;;4.33;4.00;;;;;27.39;34.30;101234.94;146615;588;46020;-68
2022/10/09 13:30:35;;;;;;;;;11.00;11.00;;;;;27.44;33.87;101229.56;146615;649;46915;-69
2022/10/09 13:33:32;;;;;;;;;7.00;6.00;;;;;27.56;31.83;101244.53;146622;595;46021;-68
2022/10/09 13:36:30;;;;;;;;;7.25;7.25;;;;;27.58;35.40;101238.28;146617;631;46034;-69
2022/10/09 13:39:28;;;;;;;;;7.50;5.50;;;;;27.58;36.25;101234.75;146623;587;46025;-68
2022/10/09 13:42:31;;;;;;;;;8.00;7.00;;;;;27.57;35.87;101233.87;146618;569;46016;-69
2022/10/09 13:45:37;;;;;;;;;;;;;;;;;;;;;
2022/10/09 13:48:41;;;;;;;;;6.75;6.75;;;;;27.49;36.93;101242.84;146616;565;46016;-67
2022/10/09 13:52:02;;;;;;;;;6.25;6.25;;;;;27.36;36.18;101234.09;146620;580;46012;-68
2022/10/09 13:54:57;;;;;;;;;8.00;8.00;;;;;27.21;36.07;101231.59;146607;636;46017;-68
2022/10/09 13:57:55;;;;;;;;;8.00;7.67;;;;;27.09;36.60;101233.41;146610;647;46020;-69
2022/10/09 14:00:57;;;;;;;;;9.00;8.50;;;;;26.97;37.70;101225.53;146615;578;46017;-68
2022/10/09 14:04:02;;;;;;;;;9.25;8.00;;;;;26.80;38.55;101228.34;146615;564;46020;-68
2022/10/09 14:06:57;;;;;;;;;5.00;5.00;;;;;26.69;38.78;101225.75;146619;589;47012;-68
2022/10/09 14:09:56;;;;;;;;;6.33;6.00;;;;;26.64;39.24;101227.56;146618;636;47012;-69
2022/10/09 14:12:51;;;;;;;;;6.00;5.25;;;;;26.57;39.26;101235.59;146615;654;47012;-68
2022/10/09 14:15:48;;;;;;;;;7.00;6.00;;;;;26.51;39.98;101232.97;146620;590;46011;-69
2022/10/09 14:18:40;;;;;;;;;5.00;4.33;;;;;26.45;40.97;101228.56;146614;601;46016;-69
2022/10/09 14:21:33;;;;;;;;;7.00;7.00;;;;;26.40;40.07;101233.00;146618;566;46020;-69
2022/10/09 14:24:34;;;;;;;;;6.00;5.00;;;;;26.24;40.70;101233.09;146612;564;46037;-68
2022/10/09 14:27:27;;;;;;;;;7.00;7.00;;;;;26.12;41.17;101230.50;146609;590;46020;-67
2022/10/09 14:30:27;;;;;;;;;7.33;7.00;;;;;25.97;41.37;101235.88;146617;640;46034;-68
2022/10/09 14:33:24;;;;;;;;;8.00;8.00;;;;;25.84;40.41;101231.50;146616;599;46020;-68
2022/10/09 14:36:27;;;;;;;;;8.00;7.00;;;;;25.77;40.96;101236.81;146614;617;46916;-68
2022/10/09 14:39:20;;;;;;;;;6.25;6.25;;;;;25.75;40.96;101233.25;146616;713;46021;-69
2022/10/09 14:42:15;;;;;;;;;7.67;7.33;;;;;25.70;43.32;101234.16;146615;607;46915;-68
2022/10/09 14:45:14;;;;;;;;;6.67;5.67;;;;;25.57;43.95;101233.31;146616;578;46021;-68
2022/10/09 14:48:24;;;;;;;;;9.25;9.25;;;;;25.45;43.68;101228.94;146612;671;46016;-69
2022/10/09 14:51:25;;;;;;;;;7.25;6.00;;;;;25.34;43.71;101218.31;146620;628;46020;-69